createdAt,value
2022-10-11T00:01:30.046Z,100444.81
2022-10-11T00:04:25.383Z,100451.03
2022-10-11T00:07:18.363Z,100451.78
2022-10-11T00:10:16.061Z,100446.19
2022-10-11T00:13:12.600Z,100455.50
2022-10-11T00:16:01.847Z,100461.66
2022-10-11T00:18:56.762Z,100454.94
2022-10-11T00:21:51.701Z,100449.47
2022-10-11T00:24:46.116Z,100457.28
2022-10-11T00:27:41.053Z,100452.34
2022-10-11T00:30:38.739Z,100477.44
2022-10-11T00:33:35.945Z,100461.94
2022-10-11T00:36:29.315Z,100467.03
2022-10-11T00:39:25.713Z,100470.56
2022-10-11T00:42:19.524Z,100481.34
2022-10-11T00:46:04.410Z,100464.22
2022-10-11T00:49:08.676Z,100473.81
2022-10-11T00:52:04.075Z,100479.00
2022-10-11T00:55:00.874Z,100471.19
2022-10-11T00:57:56.562Z,100477.97
2022-10-11T01:00:50.885Z,100477.97
2022-10-11T01:03:40.724Z,100477.06
2022-10-11T01:06:37.303Z,100478.94
2022-10-11T01:09:30.413Z,100480.69
2022-10-11T01:12:31.953Z,100486.00
2022-10-11T01:15:26.896Z,100475.75
2022-10-11T01:18:37.621Z,100483.72
2022-10-11T01:21:41.824Z,100475.34
2022-10-11T01:24:49.254Z,100476.72
2022-10-11T01:28:04.903Z,100478.56
2022-10-11T01:31:08.953Z,100484.97
2022-10-11T01:34:02.920Z,100454.19
2022-10-11T01:37:08.674Z,100478.84
2022-10-11T01:40:05.019Z,100478.84
2022-10-11T01:42:58.581Z,100487.47
2022-10-11T01:45:53.215Z,100484.78
2022-10-11T01:48:51.831Z,100486.38
2022-10-11T01:51:51.158Z,100482.13
2022-10-11T01:55:09.692Z,100483.97
2022-10-11T01:58:09.712Z,100490.00
2022-10-11T02:01:11.162Z,100486.91
2022-10-11T02:04:08.154Z,100492.16
2022-10-11T02:07:05.491Z,100497.63
2022-10-11T02:10:05.615Z,100500.28
2022-10-11T02:12:59.392Z,100499.38
2022-10-11T02:15:53.456Z,100493.44
2022-10-11T02:18:56.286Z,100509.13
2022-10-11T02:21:54.715Z,100503.25
2022-10-11T02:24:49.509Z,100511.34
2022-10-11T02:27:45.398Z,100507.38
2022-10-11T02:30:35.971Z,100506.78
2022-10-11T02:33:28.725Z,100503.88
2022-10-11T02:36:25.555Z,100505.97
2022-10-11T02:39:26.514Z,100480.03
2022-10-11T02:42:20.757Z,100504.75
2022-10-11T02:45:15.785Z,100522.41
2022-10-11T02:48:08.819Z,100515.34
2022-10-11T02:51:02.968Z,100514.41
2022-10-11T02:53:53.625Z,100509.97
2022-10-11T02:56:50.786Z,100508.44
2022-10-11T02:59:44.780Z,100514.53
2022-10-11T03:02:38.140Z,100507.28
2022-10-11T03:05:41.373Z,100530.69
2022-10-11T03:08:36.429Z,100527.25
2022-10-11T03:11:26.174Z,100528.31
2022-10-11T03:14:20.895Z,100540.56
2022-10-11T03:17:35.154Z,100541.41
2022-10-11T03:20:26.279Z,100529.22
2022-10-11T03:23:16.249Z,100538.63
2022-10-11T03:26:06.309Z,100546.53
2022-10-11T03:29:01.162Z,100535.44
2022-10-11T03:31:56.138Z,100543.25
2022-10-11T03:34:46.634Z,100550.28
2022-10-11T03:37:44.524Z,100553.03
2022-10-11T03:40:35.024Z,100545.63
2022-10-11T03:43:28.372Z,100559.63
2022-10-11T03:46:23.568Z,100553.00
2022-10-11T03:49:18.411Z,100563.75
2022-10-11T03:52:10.317Z,100555.41
2022-10-11T03:55:03.970Z,100556.88
2022-10-11T03:58:07.987Z,100561.25
2022-10-11T04:01:01.166Z,100568.88
2022-10-11T04:04:05.892Z,100569.22
2022-10-11T04:06:55.950Z,100548.63
2022-10-11T04:09:47.783Z,100581.34
2022-10-11T04:12:39.684Z,100578.31
2022-10-11T04:15:32.313Z,100582.19
2022-10-11T04:18:21.948Z,100554.91
2022-10-11T04:21:13.628Z,100567.09
2022-10-11T04:24:20.293Z,100573.16
2022-10-11T04:27:09.924Z,100557.84
2022-10-11T04:29:59.032Z,100572.22
2022-10-11T04:32:48.537Z,100599.03
2022-10-11T04:35:37.675Z,100590.38
2022-10-11T04:38:29.213Z,100602.41
2022-10-11T04:41:19.740Z,100584.88
2022-10-11T04:44:08.604Z,100611.44
2022-10-11T04:46:57.510Z,100603.41
2022-10-11T04:49:46.617Z,100603.50
2022-10-11T04:52:35.787Z,100623.44
2022-10-11T04:55:24.624Z,100622.84
2022-10-11T04:58:14.886Z,100626.56
2022-10-11T05:01:04.299Z,100629.38
2022-10-11T05:03:52.809Z,100650.38
2022-10-11T05:06:41.886Z,100653.06
2022-10-11T05:09:31.025Z,100651.56
2022-10-11T05:12:22.504Z,100659.63
2022-10-11T05:15:16.495Z,100638.72
2022-10-11T05:18:43.013Z,100635.25
2022-10-11T05:21:31.600Z,100666.63
2022-10-11T05:24:19.890Z,100669.47
2022-10-11T05:27:08.364Z,100660.22
2022-10-11T05:29:56.733Z,100669.09
2022-10-11T05:32:46.476Z,100684.88
2022-10-11T05:35:35.013Z,100678.38
2022-10-11T05:38:23.732Z,100682.78
2022-10-11T05:41:14.048Z,100693.50
2022-10-11T05:44:38.414Z,100696.56
2022-10-11T05:47:27.505Z,100701.06
2022-10-11T05:50:24.294Z,100687.50
2022-10-11T05:53:15.638Z,100737.78
2022-10-11T05:56:04.541Z,100704.34
2022-10-11T05:58:55.647Z,100714.88
2022-10-11T06:01:46.426Z,100699.75
2022-10-11T06:04:37.515Z,100718.53
2022-10-11T06:07:27.529Z,100701.91
2022-10-11T06:10:17.266Z,100727.19
2022-10-11T06:13:06.089Z,100724.63
2022-10-11T06:15:34.529Z,100711.56
2022-10-11T06:18:02.890Z,100680.03
2022-10-11T06:20:31.363Z,100728.78
2022-10-11T06:23:01.460Z,100710.09
2022-10-11T06:25:29.761Z,100769.09
2022-10-11T06:27:58.397Z,100736.97
2022-10-11T06:30:26.656Z,100744.09
2022-10-11T06:32:54.946Z,100733.38
2022-10-11T06:35:23.329Z,100732.28
2022-10-11T06:37:51.460Z,100726.81
2022-10-11T06:40:21.998Z,100748.56
2022-10-11T06:43:00.785Z,100735.97
2022-10-11T06:45:29.092Z,100731.69
2022-10-11T06:47:57.447Z,100757.22
2022-10-11T06:50:47.237Z,100731.25
2022-10-11T06:53:14.239Z,100740.75
2022-10-11T06:55:43.890Z,100756.75
2022-10-11T06:58:40.088Z,100747.13
2022-10-11T07:01:21.351Z,100754.94
2022-10-11T07:03:49.645Z,100768.47
2022-10-11T07:06:19.113Z,100778.16
2022-10-11T07:08:47.586Z,100737.47
2022-10-11T07:11:18.671Z,100772.75
2022-10-11T07:13:50.702Z,100800.41
2022-10-11T07:16:19.235Z,100777.28
2022-10-11T07:18:47.895Z,100777.91
2022-10-11T07:21:16.957Z,100779.00
2022-10-11T07:23:45.674Z,100784.06
2022-10-11T07:26:19.460Z,100771.06
2022-10-11T07:28:54.515Z,100763.19
2022-10-11T07:31:26.990Z,100802.13
2022-10-11T07:33:55.093Z,100793.41
2022-10-11T07:36:24.244Z,100791.56
2022-10-11T07:38:52.491Z,100793.84
2022-10-11T07:41:21.976Z,100797.34
2022-10-11T07:43:50.992Z,100801.00
2022-10-11T07:46:19.520Z,100810.53
2022-10-11T07:48:47.602Z,100807.16
2022-10-11T07:51:17.868Z,100803.78
2022-10-11T07:53:46.993Z,100808.81
2022-10-11T07:56:16.785Z,100807.78
2022-10-11T07:58:46.182Z,100814.28
2022-10-11T08:01:14.650Z,100812.53
2022-10-11T08:03:42.822Z,100813.50
2022-10-11T08:06:12.734Z,100822.13
2022-10-11T08:08:40.802Z,100823.59
2022-10-11T08:11:08.890Z,100823.38
2022-10-11T08:13:37.084Z,100828.09
2022-10-11T08:16:13.122Z,100818.06
2022-10-11T08:18:41.201Z,100816.13
2022-10-11T08:21:09.772Z,100821.88
2022-10-11T08:23:38.003Z,100823.31
2022-10-11T08:26:07.242Z,100822.06
2022-10-11T08:28:35.745Z,100830.78
2022-10-11T08:31:04.036Z,100830.88
2022-10-11T08:33:33.502Z,100830.81
2022-10-11T08:36:05.612Z,100834.03
2022-10-11T08:38:33.998Z,100835.47
2022-10-11T08:41:02.371Z,100831.00
2022-10-11T08:43:40.657Z,100828.72
2022-10-11T08:46:09.712Z,100832.13
2022-10-11T08:48:41.889Z,100828.13
2022-10-11T08:51:15.869Z,100823.22
2022-10-11T08:53:47.677Z,100832.13
2022-10-11T08:56:16.161Z,100835.34
2022-10-11T08:58:48.093Z,100830.13
2022-10-11T09:01:19.237Z,100827.50
2022-10-11T09:03:49.144Z,100826.63
2022-10-11T09:06:26.197Z,100818.28
2022-10-11T09:09:18.326Z,100824.34
2022-10-11T09:11:56.576Z,100823.84
2022-10-11T09:14:59.054Z,100819.78
2022-10-11T09:17:38.839Z,100815.31
2022-10-11T09:20:32.293Z,100815.91
2022-10-11T09:23:03.882Z,100818.03
2022-10-11T09:25:34.249Z,100816.41
2022-10-11T09:28:13.370Z,100812.97
2022-10-11T09:30:48.180Z,100811.91
2022-10-11T09:33:19.894Z,100815.69
2022-10-11T09:35:50.900Z,100821.19
2022-10-11T09:38:27.567Z,100813.97
2022-10-11T09:41:07.049Z,100821.22
2022-10-11T09:43:35.085Z,100820.53
2022-10-11T09:46:03.502Z,100821.22
2022-10-11T09:48:38.546Z,100820.97
2022-10-11T09:51:13.148Z,100821.44
2022-10-11T09:53:51.595Z,100819.50
2022-10-11T09:56:19.739Z,100810.91
2022-10-11T09:58:47.883Z,100809.63
2022-10-11T10:01:24.343Z,100810.75
2022-10-11T10:04:11.124Z,100797.84
2022-10-11T10:06:40.654Z,100801.47
2022-10-11T10:09:27.373Z,100798.88
2022-10-11T10:11:55.884Z,100802.72
2022-10-11T10:14:26.309Z,100794.44
2022-10-11T10:17:03.019Z,100796.97
2022-10-11T10:19:31.978Z,100796.22
2022-10-11T10:22:01.375Z,100793.97
2022-10-11T10:24:38.115Z,100794.31
2022-10-11T10:27:09.217Z,100790.56
2022-10-11T10:29:37.452Z,100782.00
2022-10-11T10:32:14.683Z,100785.56
2022-10-11T10:34:54.033Z,100776.78
2022-10-11T10:37:28.040Z,100778.41
2022-10-11T10:39:58.844Z,100784.09
2022-10-11T10:42:27.024Z,100773.81
2022-10-11T10:44:56.886Z,100778.06
2022-10-11T10:47:47.965Z,100778.66
2022-10-11T10:50:19.394Z,100776.44
2022-10-11T10:53:10.042Z,100773.47
2022-10-11T10:55:41.171Z,100777.88
2022-10-11T10:58:34.186Z,100774.59
2022-10-11T11:01:06.800Z,100772.41
2022-10-11T11:03:38.156Z,100776.91
2022-10-11T11:06:08.484Z,100772.34
2022-10-11T11:08:49.673Z,100772.38
2022-10-11T11:11:33.450Z,100767.88
2022-10-11T11:14:07.481Z,100763.16
2022-10-11T11:16:39.221Z,100760.22
2022-10-11T11:19:10.900Z,100757.84
2022-10-11T11:21:43.641Z,100760.38
2022-10-11T11:24:18.077Z,100766.44
2022-10-11T11:26:48.984Z,100760.34
2022-10-11T11:29:27.322Z,100757.84
2022-10-11T11:32:06.647Z,100763.34
2022-10-11T11:34:37.781Z,100754.28
2022-10-11T11:37:07.499Z,100752.94
2022-10-11T11:39:38.816Z,100754.16
2022-10-11T11:42:09.940Z,100752.91
2022-10-11T11:44:40.295Z,100746.81
2022-10-11T11:47:11.899Z,100744.72
2022-10-11T11:52:21.604Z,100741.59
2022-10-11T11:54:58.040Z,100729.28
2022-10-11T11:57:35.096Z,100743.50
2022-10-11T12:00:06.290Z,100738.25
2022-10-11T12:02:45.453Z,100740.09
2022-10-11T12:05:15.937Z,100733.81
2022-10-11T12:07:58.885Z,100732.13
2022-10-11T12:10:36.155Z,100728.66
2022-10-11T12:13:20.668Z,100724.63
2022-10-11T12:15:59.115Z,100725.22
2022-10-11T12:18:27.500Z,100713.25
2022-10-11T12:21:03.943Z,100705.50
2022-10-11T12:23:47.021Z,100714.34
2022-10-11T12:26:38.896Z,100714.44
2022-10-11T12:29:43.669Z,100701.66
2022-10-11T12:32:53.600Z,100693.41
2022-10-11T12:35:49.855Z,100698.19
2022-10-11T12:38:22.371Z,100702.31
2022-10-11T12:40:51.499Z,100700.50
2022-10-11T12:43:33.828Z,100695.75
2022-10-11T12:46:43.132Z,100696.31
2022-10-11T12:49:29.036Z,100695.25
2022-10-11T12:52:01.491Z,100681.50
2022-10-11T12:55:03.111Z,100672.38
2022-10-11T12:58:07.404Z,100669.75
2022-10-11T13:00:43.897Z,100657.31
2022-10-11T13:03:32.327Z,100671.38
2022-10-11T13:06:01.978Z,100679.28
2022-10-11T13:08:32.142Z,100682.44
2022-10-11T13:11:03.314Z,100680.53
2022-10-11T13:13:34.029Z,100693.66
2022-10-11T13:16:10.529Z,100681.25
2022-10-11T13:18:42.713Z,100684.13
2022-10-11T13:21:22.995Z,100686.50
2022-10-11T13:23:55.566Z,100686.66
2022-10-11T13:26:23.699Z,100679.50
2022-10-11T13:28:51.902Z,100676.63
2022-10-11T13:31:21.359Z,100688.31
2022-10-11T13:33:49.699Z,100682.78
2022-10-11T13:36:18.704Z,100678.53
2022-10-11T13:38:53.449Z,100676.16
2022-10-11T13:41:21.816Z,100670.59
2022-10-11T13:43:50.417Z,100672.13
2022-10-11T13:46:23.791Z,100668.06
2022-10-11T13:49:00.229Z,100675.47
2022-10-11T13:51:32.408Z,100677.84
2022-10-11T13:54:03.232Z,100666.41
2022-10-11T13:56:33.555Z,100663.56
2022-10-11T13:59:01.817Z,100669.03
2022-10-11T14:01:37.932Z,100666.00
2022-10-11T14:04:07.432Z,100665.53
2022-10-11T14:06:44.233Z,100662.53
2022-10-11T14:09:21.758Z,100659.59
2022-10-11T14:11:50.127Z,100663.44
2022-10-11T14:14:40.737Z,100653.97
2022-10-11T14:17:16.463Z,100666.97
2022-10-11T14:19:44.884Z,100664.09
2022-10-11T14:22:16.592Z,100663.28
2022-10-11T14:24:45.062Z,100667.09
2022-10-11T14:27:17.420Z,100666.81
2022-10-11T14:30:00.272Z,100665.72
2022-10-11T14:32:35.289Z,100673.50
2022-10-11T14:35:03.441Z,100670.09
2022-10-11T14:37:31.743Z,100671.44
2022-10-11T14:39:59.811Z,100677.81
2022-10-11T14:42:27.845Z,100672.72
2022-10-11T14:44:55.957Z,100671.06
2022-10-11T14:47:24.107Z,100675.16
2022-10-11T14:49:53.570Z,100671.06
2022-10-11T14:52:21.628Z,100670.94
2022-10-11T14:54:49.860Z,100663.72
2022-10-11T14:57:17.927Z,100674.69
2022-10-11T14:59:46.091Z,100667.72
2022-10-11T15:02:14.168Z,100656.59
2022-10-11T15:04:42.232Z,100660.69
2022-10-11T15:07:12.511Z,100661.50
2022-10-11T15:09:40.549Z,100660.38
2022-10-11T15:12:09.707Z,100666.84
2022-10-11T15:14:37.852Z,100655.84
2022-10-11T15:17:05.971Z,100659.22
2022-10-11T15:19:34.101Z,100665.09
2022-10-11T15:22:04.267Z,100660.25
2022-10-11T15:24:33.733Z,100651.22
2022-10-11T15:27:01.823Z,100660.44
2022-10-11T15:29:29.964Z,100648.81
2022-10-11T15:31:58.020Z,100658.53
2022-10-11T15:34:26.049Z,100660.16
2022-10-11T15:36:54.102Z,100662.34
2022-10-11T15:39:26.271Z,100658.59
2022-10-11T15:41:55.682Z,100655.91
2022-10-11T15:44:23.765Z,100662.63
2022-10-11T15:46:51.868Z,100660.41
2022-10-11T15:49:20.178Z,100661.00
2022-10-11T15:51:48.237Z,100660.75
2022-10-11T15:54:16.298Z,100662.38
2022-10-11T15:56:45.443Z,100663.16
2022-10-11T15:59:14.904Z,100659.75
2022-10-11T16:01:43.068Z,100664.66
2022-10-11T16:04:11.322Z,100673.81
2022-10-11T16:06:40.915Z,100662.03
2022-10-11T16:09:08.971Z,100666.06
2022-10-11T16:11:37.102Z,100666.03
2022-10-11T16:14:05.298Z,100674.13
2022-10-11T16:16:34.790Z,100676.38
2022-10-11T16:19:02.855Z,100671.31
2022-10-11T16:21:31.112Z,100677.56
2022-10-11T16:23:59.785Z,100669.66
2022-10-11T16:26:27.890Z,100666.84
2022-10-11T16:28:56.559Z,100672.00
2022-10-11T16:31:24.710Z,100673.84
2022-10-11T16:33:54.237Z,100679.16
2022-10-11T16:36:40.425Z,100675.91
2022-10-11T16:39:10.371Z,100674.31
2022-10-11T16:41:38.574Z,100679.38
2022-10-11T16:44:06.665Z,100681.81
2022-10-11T16:46:34.906Z,100685.19
2022-10-11T16:49:04.865Z,100678.97
2022-10-11T16:51:32.987Z,100685.59
2022-10-11T16:54:01.246Z,100687.91
2022-10-11T16:56:29.441Z,100687.63
2022-10-11T16:58:57.472Z,100680.31
2022-10-11T17:01:25.562Z,100684.31
2022-10-11T17:03:53.754Z,100679.91
2022-10-11T17:06:23.199Z,100685.53
2022-10-11T17:08:51.379Z,100688.75
2022-10-11T17:11:20.067Z,100680.63
2022-10-11T17:13:48.158Z,100683.72
2022-10-11T17:16:16.403Z,100682.41
2022-10-11T17:18:44.586Z,100689.00
2022-10-11T17:21:14.418Z,100692.88
2022-10-11T17:23:44.023Z,100694.00
2022-10-11T17:26:19.174Z,100682.22
2022-10-11T17:28:47.606Z,100697.94
2022-10-11T17:31:15.861Z,100690.28
2022-10-11T17:33:43.924Z,100686.31
2022-10-11T17:36:18.297Z,100683.94
2022-10-11T17:38:47.836Z,100684.19
2022-10-11T17:41:16.199Z,100685.47
2022-10-11T17:43:44.454Z,100684.22
2022-10-11T17:46:13.273Z,100686.25
2022-10-11T17:48:41.371Z,100683.84
2022-10-11T17:51:10.554Z,100684.81
2022-10-11T17:53:38.781Z,100687.47
2022-10-11T17:56:10.426Z,100690.19
2022-10-11T17:58:38.568Z,100696.34
2022-10-11T18:01:08.241Z,100687.22
2022-10-11T18:03:36.809Z,100688.31
2022-10-11T18:06:05.615Z,100690.91
2022-10-11T18:08:39.810Z,100693.53
2022-10-11T18:11:12.463Z,100694.53
2022-10-11T18:13:43.110Z,100694.53
2022-10-11T18:16:11.735Z,100704.91
2022-10-11T18:18:40.111Z,100698.88
2022-10-11T18:21:08.108Z,100701.53
2022-10-11T18:23:38.083Z,100689.47
2022-10-11T18:26:15.049Z,100693.97
2022-10-11T18:28:43.776Z,100691.56
2022-10-11T18:31:14.849Z,100690.00
2022-10-11T18:33:45.426Z,100695.31
2022-10-11T18:36:14.332Z,100691.19
2022-10-11T18:38:46.233Z,100686.19
2022-10-11T18:41:17.185Z,100692.28
2022-10-11T18:43:50.000Z,100697.53
2022-10-11T18:46:18.544Z,100699.38
2022-10-11T18:48:48.234Z,100704.66
2022-10-11T18:51:18.291Z,100703.00
2022-10-11T18:53:46.607Z,100699.63
2022-10-11T18:56:17.206Z,100705.69
2022-10-11T18:58:45.596Z,100701.28
2022-10-11T19:01:15.911Z,100702.13
2022-10-11T19:03:44.331Z,100710.69
2022-10-11T19:06:17.094Z,100710.81
2022-10-11T19:08:45.335Z,100715.75
2022-10-11T19:11:15.576Z,100704.56
2022-10-11T19:13:43.808Z,100705.44
2022-10-11T19:16:13.333Z,100694.44
2022-10-11T19:18:44.233Z,100697.28
2022-10-11T19:21:14.271Z,100704.47
2022-10-11T19:23:43.832Z,100696.06
2022-10-11T19:26:15.835Z,100695.47
2022-10-11T19:28:44.163Z,100692.19
2022-10-11T19:31:16.159Z,100693.25
2022-10-11T19:33:44.622Z,100689.09
2022-10-11T19:36:13.474Z,100694.38
2022-10-11T19:38:44.492Z,100690.19
2022-10-11T19:41:13.032Z,100682.53
2022-10-11T19:43:42.502Z,100692.97
2022-10-11T19:46:12.550Z,100687.00
2022-10-11T19:48:42.689Z,100687.09
2022-10-11T19:51:12.538Z,100687.25
2022-10-11T19:53:40.972Z,100685.53
2022-10-11T19:56:10.479Z,100688.25
2022-10-11T19:58:38.746Z,100690.06
2022-10-11T20:01:09.961Z,100688.31
2022-10-11T20:03:59.802Z,100691.88
2022-10-11T20:06:48.152Z,100695.47
2022-10-11T20:09:36.586Z,100689.56
2022-10-11T20:12:29.202Z,100690.53
2022-10-11T20:15:17.941Z,100702.69
2022-10-11T20:18:08.061Z,100703.66
2022-10-11T20:20:57.737Z,100704.63
2022-10-11T20:23:47.356Z,100708.25
2022-10-11T20:26:35.761Z,100702.34
2022-10-11T20:29:25.173Z,100705.97
2022-10-11T20:32:13.594Z,100700.97
2022-10-11T20:35:03.311Z,100702.81
2022-10-11T20:37:53.552Z,100694.41
2022-10-11T20:40:41.969Z,100700.59
2022-10-11T20:43:30.269Z,100704.13
2022-10-11T20:46:19.909Z,100699.94
2022-10-11T20:49:09.612Z,100705.19
2022-10-11T20:51:59.302Z,100706.94
2022-10-11T20:54:47.641Z,100707.88
2022-10-11T20:57:36.479Z,100709.66
2022-10-11T21:00:24.975Z,100711.47
2022-10-11T21:03:13.397Z,100702.00
2022-10-11T21:06:01.757Z,100708.97
2022-10-11T21:08:51.394Z,100707.34
2022-10-11T21:11:39.736Z,100709.13
2022-10-11T21:14:28.069Z,100715.28
2022-10-11T21:17:16.882Z,100707.72
2022-10-11T21:20:06.552Z,100718.22
2022-10-11T21:22:54.907Z,100717.41
2022-10-11T21:25:44.606Z,100715.75
2022-10-11T21:28:33.053Z,100720.03
2022-10-11T21:31:22.211Z,100705.41
2022-10-11T21:34:10.691Z,100706.28
2022-10-11T21:37:00.465Z,100698.47
2022-10-11T21:39:48.861Z,100700.94
2022-10-11T21:42:38.923Z,100695.72
2022-10-11T21:45:27.486Z,100690.41
2022-10-11T21:48:15.799Z,100693.75
2022-10-11T21:51:04.188Z,100698.75
2022-10-11T21:53:53.160Z,100695.25
2022-10-11T21:56:41.577Z,100688.28
2022-10-11T21:59:31.297Z,100679.72
2022-10-11T22:02:19.638Z,100676.22
2022-10-11T22:05:08.384Z,100680.41
2022-10-11T22:07:56.732Z,100677.69
2022-10-11T22:10:45.301Z,100674.41
2022-10-11T22:13:34.303Z,100678.50
2022-10-11T22:16:23.974Z,100684.41
2022-10-11T22:19:12.369Z,100679.16
2022-10-11T22:22:00.675Z,100676.47
2022-10-11T22:24:48.976Z,100676.34
2022-10-11T22:27:37.339Z,100675.38
2022-10-11T22:30:25.671Z,100671.94
2022-10-11T22:33:15.353Z,100672.84
2022-10-11T22:36:05.505Z,100665.19
2022-10-11T22:38:54.428Z,100667.06
2022-10-11T22:41:42.749Z,100655.38
2022-10-11T22:44:31.074Z,100659.72
2022-10-11T22:47:19.416Z,100657.31
2022-10-11T22:50:10.141Z,100661.88
2022-10-11T22:52:58.477Z,100657.06
2022-10-11T22:55:46.864Z,100660.66
2022-10-11T22:58:35.232Z,100647.81
2022-10-11T23:01:23.561Z,100657.50
2022-10-11T23:04:11.947Z,100655.88
2022-10-11T23:07:04.978Z,100657.72
2022-10-11T23:09:53.634Z,100653.53
2022-10-11T23:12:41.984Z,100645.91
2022-10-11T23:15:30.359Z,100653.78
2022-10-11T23:18:18.943Z,100651.38
2022-10-11T23:21:07.583Z,100645.44
2022-10-11T23:23:57.248Z,100653.31
2022-10-11T23:26:45.570Z,100650.78
2022-10-11T23:29:33.871Z,100649.94
2022-10-11T23:32:22.156Z,100649.94
2022-10-11T23:35:10.686Z,100653.41
2022-10-11T23:37:59.055Z,100650.91
2022-10-11T23:40:48.739Z,100646.56
2022-10-11T23:43:37.093Z,100646.56
2022-10-11T23:46:25.676Z,100649.09
2022-10-11T23:49:14.095Z,100650.81
2022-10-11T23:52:02.433Z,100649.09
2022-10-11T23:54:50.811Z,100639.59
2022-10-11T23:57:40.774Z,100645.56
